createdAt,value
2022-10-21T00:02:10.013Z,12.00
2022-10-21T00:04:58.435Z,11.07
2022-10-21T00:07:46.850Z,10.77
2022-10-21T00:13:27.547Z,9.77
2022-10-21T00:16:19.319Z,11.03
2022-10-21T00:19:07.771Z,9.97
2022-10-21T00:21:56.193Z,10.77
2022-10-21T00:24:44.592Z,11.80
2022-10-21T00:27:34.405Z,10.53
2022-10-21T00:30:22.902Z,10.87
2022-10-21T00:33:11.324Z,11.33
2022-10-21T00:36:02.662Z,11.80
2022-10-21T00:38:51.111Z,11.57
2022-10-21T00:41:39.567Z,11.53
2022-10-21T00:44:29.331Z,9.60
2022-10-21T00:47:22.594Z,9.40
2022-10-21T00:50:20.659Z,11.50
2022-10-21T00:53:12.315Z,11.43
2022-10-21T00:56:05.403Z,11.10
2022-10-21T00:58:55.615Z,11.73
2022-10-21T01:01:45.412Z,11.30
2022-10-21T01:04:33.845Z,9.87
2022-10-21T01:07:22.231Z,10.50
2022-10-21T01:10:10.710Z,10.50
2022-10-21T01:13:10.605Z,11.67
2022-10-21T01:16:03.759Z,11.03
2022-10-21T01:19:00.895Z,9.87
2022-10-21T01:21:51.987Z,10.43
2022-10-21T01:24:59.240Z,10.47
2022-10-21T01:27:53.388Z,11.00
2022-10-21T01:30:44.045Z,11.27
2022-10-21T01:33:39.922Z,10.77
2022-10-21T01:36:32.535Z,10.40
2022-10-21T01:39:25.364Z,10.87
2022-10-21T01:42:17.829Z,11.10
2022-10-21T01:45:11.126Z,11.57
2022-10-21T01:48:04.561Z,10.33
2022-10-21T01:50:54.560Z,10.27
2022-10-21T01:53:46.825Z,10.57
2022-10-21T01:56:35.340Z,10.67
2022-10-21T01:59:26.923Z,9.80
2022-10-21T02:02:17.087Z,9.97
2022-10-21T02:05:11.452Z,9.40
2022-10-21T02:07:59.886Z,9.30
2022-10-21T02:10:50.281Z,9.30
2022-10-21T02:13:43.334Z,10.17
2022-10-21T02:16:36.695Z,10.10
2022-10-21T02:19:25.144Z,9.77
2022-10-21T02:22:18.862Z,9.70
2022-10-21T02:25:11.599Z,8.60
2022-10-21T02:28:00.187Z,8.27
2022-10-21T02:30:57.476Z,8.73
2022-10-21T02:33:53.328Z,8.43
2022-10-21T02:36:51.278Z,7.90
2022-10-21T02:39:45.622Z,9.40
2022-10-21T02:42:37.137Z,8.23
2022-10-21T02:45:27.315Z,8.97
2022-10-21T02:48:15.775Z,8.23
2022-10-21T02:51:05.954Z,9.43
2022-10-21T02:53:54.347Z,8.67
2022-10-21T02:56:44.099Z,7.27
2022-10-21T02:59:32.518Z,8.40
2022-10-21T03:02:20.908Z,7.93
2022-10-21T03:05:10.401Z,7.63
2022-10-21T03:07:58.823Z,7.27
2022-10-21T03:10:52.979Z,7.10
2022-10-21T03:13:43.323Z,6.30
2022-10-21T03:16:31.740Z,6.93
2022-10-21T03:19:20.162Z,6.80
2022-10-21T03:22:08.604Z,7.00
2022-10-21T03:24:57.098Z,7.40
2022-10-21T03:27:45.495Z,6.10
2022-10-21T03:30:35.266Z,6.33
2022-10-21T03:33:23.681Z,7.37
2022-10-21T03:36:12.112Z,7.30
2022-10-21T03:39:00.537Z,7.33
2022-10-21T03:41:48.949Z,6.10
2022-10-21T03:44:37.410Z,6.73
2022-10-21T03:47:27.200Z,7.07
2022-10-21T03:50:18.210Z,6.80
2022-10-21T03:53:13.972Z,6.30
2022-10-21T03:56:13.327Z,6.40
2022-10-21T03:59:01.754Z,7.13
2022-10-21T04:01:50.205Z,6.30
2022-10-21T04:04:40.025Z,6.60
2022-10-21T04:07:28.439Z,6.90
2022-10-21T04:10:16.956Z,6.73
2022-10-21T04:13:05.395Z,7.57
2022-10-21T04:15:58.826Z,7.60
2022-10-21T04:18:47.391Z,6.43
2022-10-21T04:21:37.176Z,6.27
2022-10-21T04:24:25.600Z,7.03
2022-10-21T04:27:14.025Z,6.77
2022-10-21T04:30:02.408Z,8.33
2022-10-21T04:32:51.691Z,7.30
2022-10-21T04:35:40.870Z,6.60
2022-10-21T04:38:30.655Z,6.67
2022-10-21T04:41:19.056Z,7.23
2022-10-21T04:44:07.546Z,6.30
2022-10-21T04:46:56.002Z,7.20
2022-10-21T04:49:44.421Z,6.90
2022-10-21T04:52:32.848Z,7.10
2022-10-21T04:55:22.585Z,6.40
2022-10-21T04:58:11.203Z,7.97
2022-10-21T05:00:59.711Z,8.40
2022-10-21T05:03:48.198Z,7.60
2022-10-21T05:06:36.603Z,6.63
2022-10-21T05:09:25.059Z,6.30
2022-10-21T05:12:14.919Z,6.57
2022-10-21T05:15:03.392Z,7.10
2022-10-21T05:17:52.504Z,6.13
2022-10-21T05:20:40.926Z,8.40
2022-10-21T05:23:29.484Z,8.60
2022-10-21T05:26:17.894Z,7.40
2022-10-21T05:29:07.742Z,8.50
2022-10-21T05:31:56.164Z,10.40
2022-10-21T05:34:44.567Z,9.70
2022-10-21T05:37:33.167Z,8.30
2022-10-21T05:40:21.634Z,9.10
2022-10-21T05:43:10.064Z,9.93
2022-10-21T05:45:59.948Z,9.23
2022-10-21T05:51:41.953Z,9.63
2022-10-21T05:54:30.422Z,9.80
2022-10-21T05:57:18.868Z,9.47
2022-10-21T06:00:08.891Z,9.80
2022-10-21T06:02:58.704Z,9.57
2022-10-21T06:05:47.149Z,10.20
2022-10-21T06:08:37.546Z,9.90
2022-10-21T06:11:26.081Z,10.00
2022-10-21T06:14:14.528Z,11.07
2022-10-21T06:17:03.076Z,10.70
2022-10-21T06:19:52.908Z,10.77
2022-10-21T06:22:41.361Z,9.67
2022-10-21T06:25:29.910Z,9.90
2022-10-21T06:28:18.365Z,9.60
2022-10-21T06:31:07.943Z,11.20
2022-10-21T06:33:56.384Z,9.70
2022-10-21T06:36:46.204Z,9.53
2022-10-21T06:39:34.616Z,10.20
2022-10-21T06:42:23.043Z,9.93
2022-10-21T06:45:12.061Z,9.77
2022-10-21T06:48:00.513Z,8.67
2022-10-21T06:50:48.959Z,9.43
2022-10-21T06:53:39.642Z,10.90
2022-10-21T06:56:28.896Z,9.43
2022-10-21T06:59:17.393Z,8.43
2022-10-21T07:02:05.874Z,9.80
2022-10-21T07:04:54.306Z,9.10
2022-10-21T07:07:42.759Z,8.17
2022-10-21T07:10:32.629Z,8.63
2022-10-21T07:13:25.532Z,19.93
2022-10-21T07:16:25.468Z,10.77
2022-10-21T07:19:14.152Z,9.70
2022-10-21T07:22:02.637Z,9.47
2022-10-21T07:24:51.153Z,9.03
2022-10-21T07:27:42.443Z,8.97
2022-10-21T07:30:33.313Z,10.10
2022-10-21T07:33:21.781Z,9.83
2022-10-21T07:36:12.335Z,8.70
2022-10-21T07:39:03.315Z,9.60
2022-10-21T07:41:52.998Z,8.70
2022-10-21T07:44:42.836Z,10.37
2022-10-21T07:47:31.391Z,9.90
2022-10-21T07:50:19.953Z,11.53
2022-10-21T07:53:12.459Z,10.13
2022-10-21T07:56:06.964Z,10.00
2022-10-21T07:58:55.787Z,9.20
2022-10-21T08:01:47.367Z,8.37
2022-10-21T08:04:35.835Z,8.37
2022-10-21T08:07:24.459Z,7.80
2022-10-21T08:10:12.883Z,7.87
2022-10-21T08:13:01.301Z,8.10
2022-10-21T08:15:50.923Z,9.17
2022-10-21T08:18:40.749Z,8.80
2022-10-21T08:21:31.119Z,8.10
2022-10-21T08:24:19.612Z,10.17
2022-10-21T08:27:08.111Z,8.80
2022-10-21T08:29:56.606Z,8.40
2022-10-21T08:32:45.268Z,7.77
2022-10-21T08:35:35.119Z,8.20
2022-10-21T08:38:23.741Z,7.90
2022-10-21T08:41:24.636Z,8.60
2022-10-21T08:44:18.257Z,8.50
2022-10-21T08:47:12.966Z,8.30
2022-10-21T08:50:03.652Z,9.00
2022-10-21T08:52:56.393Z,9.10
2022-10-21T08:55:46.330Z,9.07
2022-10-21T08:58:35.294Z,9.57
2022-10-21T09:01:29.720Z,8.10
2022-10-21T09:04:24.342Z,9.60
2022-10-21T09:07:19.473Z,8.27
2022-10-21T09:10:16.088Z,7.70
2022-10-21T09:13:08.127Z,8.20
2022-10-21T09:16:02.867Z,10.67
2022-10-21T09:19:00.042Z,7.83
2022-10-21T09:22:16.452Z,7.53
2022-10-21T09:25:20.490Z,7.60
2022-10-21T09:28:13.657Z,7.00
2022-10-21T09:31:03.910Z,6.30
2022-10-21T09:33:56.344Z,6.30
2022-10-21T09:36:48.539Z,4.90
2022-10-21T09:39:41.882Z,4.17
2022-10-21T09:42:48.489Z,5.20
2022-10-21T09:45:39.176Z,3.43
2022-10-21T09:48:35.527Z,4.23
2022-10-21T09:51:32.917Z,3.30
2022-10-21T09:54:23.477Z,2.90
2022-10-21T09:57:14.931Z,3.83
2022-10-21T10:00:08.347Z,2.47
2022-10-21T10:03:00.041Z,2.23
2022-10-21T10:05:49.126Z,2.17
2022-10-21T10:08:39.565Z,2.67
2022-10-21T10:11:28.117Z,1.80
2022-10-21T10:14:31.802Z,1.90
2022-10-21T10:17:28.871Z,2.20
2022-10-21T10:20:20.189Z,1.70
2022-10-21T10:23:19.256Z,1.90
2022-10-21T10:26:08.637Z,2.93
2022-10-21T10:28:59.277Z,1.83
2022-10-21T10:31:50.806Z,1.60
2022-10-21T10:34:51.544Z,2.60
2022-10-21T10:37:40.688Z,2.17
2022-10-21T10:40:32.542Z,1.90
2022-10-21T10:43:26.080Z,2.00
2022-10-21T10:46:24.158Z,2.10
2022-10-21T10:49:22.473Z,2.50
2022-10-21T10:52:24.073Z,2.57
2022-10-21T10:55:18.504Z,2.23
2022-10-21T10:58:12.713Z,2.23
2022-10-21T11:01:10.936Z,1.93
2022-10-21T11:04:03.782Z,2.67
2022-10-21T11:06:55.553Z,1.90
2022-10-21T11:09:46.127Z,2.20
2022-10-21T11:12:34.758Z,2.17
2022-10-21T11:15:26.888Z,2.37
2022-10-21T11:18:24.482Z,2.30
2022-10-21T11:21:25.341Z,2.07
2022-10-21T11:24:52.735Z,2.40
2022-10-21T11:28:00.010Z,2.27
2022-10-21T11:30:59.822Z,2.10
2022-10-21T11:33:52.620Z,2.40
2022-10-21T11:36:49.714Z,2.73
2022-10-21T11:39:45.426Z,2.37
2022-10-21T11:42:41.303Z,2.53
2022-10-21T11:45:38.149Z,1.83
2022-10-21T11:48:55.627Z,2.00
2022-10-21T11:51:49.609Z,2.57
2022-10-21T11:55:10.375Z,2.00
2022-10-21T11:58:08.147Z,2.30
2022-10-21T12:01:07.675Z,2.50
2022-10-21T12:04:09.793Z,2.07
2022-10-21T12:07:11.434Z,2.47
2022-10-21T12:10:06.122Z,2.43
2022-10-21T12:12:56.143Z,1.80
2022-10-21T12:15:47.685Z,2.20
2022-10-21T12:18:42.159Z,1.70
2022-10-21T12:21:34.077Z,1.93
2022-10-21T12:24:28.693Z,2.20
2022-10-21T12:27:22.232Z,2.17
2022-10-21T12:30:15.415Z,1.80
2022-10-21T12:33:15.931Z,1.90
2022-10-21T12:36:20.996Z,1.80
2022-10-21T12:39:13.271Z,2.43
2022-10-21T12:42:06.481Z,1.83
2022-10-21T12:44:55.159Z,2.10
2022-10-21T12:47:46.716Z,1.70
2022-10-21T12:50:35.768Z,2.10
2022-10-21T12:53:34.855Z,1.63
2022-10-21T12:56:29.678Z,2.43
2022-10-21T12:59:28.919Z,1.87
2022-10-21T13:02:27.105Z,1.93
2022-10-21T13:05:56.247Z,1.87
2022-10-21T13:08:55.167Z,2.20
2022-10-21T13:11:43.689Z,1.70
2022-10-21T13:14:40.630Z,1.60
2022-10-21T13:17:34.486Z,2.00
2022-10-21T13:20:45.464Z,1.57
2022-10-21T13:23:38.651Z,1.80
2022-10-21T13:26:30.086Z,2.13
2022-10-21T13:29:31.425Z,1.70
2022-10-21T13:32:28.589Z,1.90
2022-10-21T13:35:33.355Z,2.00
2022-10-21T13:38:23.999Z,2.10
2022-10-21T13:41:22.439Z,2.30
2022-10-21T13:44:29.390Z,2.20
2022-10-21T13:47:30.072Z,1.73
2022-10-21T13:50:21.706Z,2.03
2022-10-21T13:53:23.605Z,2.27
2022-10-21T13:56:19.890Z,2.40
2022-10-21T13:59:23.321Z,1.70
2022-10-21T14:02:24.860Z,2.00
2022-10-21T14:05:32.101Z,1.70
2022-10-21T14:08:27.261Z,1.80
2022-10-21T14:11:18.650Z,2.03
2022-10-21T14:14:09.544Z,1.90
2022-10-21T14:17:01.483Z,2.13
2022-10-21T14:19:52.700Z,2.30
2022-10-21T14:22:41.638Z,2.50
2022-10-21T14:25:30.939Z,2.33
2022-10-21T14:28:20.843Z,1.87
2022-10-21T14:31:12.406Z,2.20
2022-10-21T14:34:02.327Z,2.30
2022-10-21T14:37:09.454Z,3.73
2022-10-21T14:40:11.349Z,2.07
2022-10-21T14:43:01.785Z,1.80
2022-10-21T14:45:52.171Z,2.17
2022-10-21T14:48:46.560Z,1.70
2022-10-21T14:51:38.317Z,1.30
2022-10-21T14:54:30.345Z,2.10
2022-10-21T14:57:30.720Z,1.80
2022-10-21T15:00:28.935Z,2.00
2022-10-21T15:03:37.631Z,1.80
2022-10-21T15:06:27.509Z,2.20
2022-10-21T15:09:23.994Z,1.80
2022-10-21T15:12:19.404Z,2.20
2022-10-21T15:15:41.185Z,2.10
2022-10-21T15:18:31.070Z,1.80
2022-10-21T15:21:27.382Z,1.97
2022-10-21T15:24:21.506Z,1.97
2022-10-21T15:27:17.198Z,1.93
2022-10-21T15:30:07.261Z,1.93
2022-10-21T15:32:56.039Z,1.80
2022-10-21T15:35:44.652Z,1.53
2022-10-21T15:38:33.108Z,2.13
2022-10-21T15:41:24.880Z,1.80
2022-10-21T15:44:19.567Z,2.50
2022-10-21T15:47:11.234Z,2.30
2022-10-21T15:49:59.691Z,2.03
2022-10-21T15:52:48.328Z,2.10
2022-10-21T15:55:38.156Z,2.30
2022-10-21T15:58:28.255Z,2.57
2022-10-21T16:01:18.594Z,3.00
2022-10-21T16:04:07.092Z,2.10
2022-10-21T16:06:56.064Z,3.70
2022-10-21T16:09:44.522Z,3.10
2022-10-21T16:12:32.964Z,2.47
2022-10-21T16:15:23.232Z,2.83
2022-10-21T16:18:13.047Z,3.10
2022-10-21T16:21:01.713Z,3.50
2022-10-21T16:23:50.827Z,3.70
2022-10-21T16:26:41.388Z,4.17
2022-10-21T16:29:29.860Z,3.87
2022-10-21T16:32:19.993Z,3.40
2022-10-21T16:35:10.219Z,5.30
2022-10-21T16:37:59.020Z,3.60
2022-10-21T16:40:47.629Z,3.07
2022-10-21T16:43:36.468Z,5.33
2022-10-21T16:46:27.695Z,5.70
2022-10-21T16:49:21.267Z,4.27
2022-10-21T16:52:10.938Z,4.73
2022-10-21T16:54:59.593Z,13.90
2022-10-21T16:57:48.083Z,5.20
2022-10-21T17:00:37.013Z,4.10
2022-10-21T17:03:25.596Z,4.67
2022-10-21T17:06:17.464Z,4.23
2022-10-21T17:09:06.073Z,7.63
2022-10-21T17:11:54.978Z,6.60
2022-10-21T17:14:43.634Z,4.73
2022-10-21T17:17:32.115Z,5.10
2022-10-21T17:20:20.782Z,4.73
2022-10-21T17:23:12.698Z,6.40
2022-10-21T17:26:01.858Z,5.70
2022-10-21T17:28:52.465Z,5.30
2022-10-21T17:31:42.899Z,4.90
2022-10-21T17:34:33.002Z,5.03
2022-10-21T17:37:21.871Z,5.43
2022-10-21T17:40:15.933Z,6.33
2022-10-21T17:43:04.858Z,4.83
2022-10-21T17:45:53.785Z,4.90
2022-10-21T17:48:42.291Z,4.80
2022-10-21T17:51:31.202Z,4.80
2022-10-21T17:54:24.152Z,5.40
2022-10-21T17:57:17.885Z,4.10
2022-10-21T18:00:07.520Z,4.43
2022-10-21T18:02:56.003Z,4.23
2022-10-21T18:05:44.566Z,4.87
2022-10-21T18:08:33.229Z,4.73
2022-10-21T18:11:22.159Z,5.37
2022-10-21T18:14:12.042Z,5.00
2022-10-21T18:17:00.598Z,5.70
2022-10-21T18:19:49.152Z,8.80
2022-10-21T18:22:37.848Z,7.43
2022-10-21T18:25:26.610Z,6.37
2022-10-21T18:28:15.094Z,6.33
2022-10-21T18:31:06.069Z,6.70
2022-10-21T18:33:55.362Z,6.30
2022-10-21T18:36:43.921Z,7.37
2022-10-21T18:39:32.380Z,7.27
2022-10-21T18:42:20.843Z,6.67
2022-10-21T18:45:10.258Z,7.93
2022-10-21T18:48:00.106Z,6.67
2022-10-21T18:50:48.550Z,7.50
2022-10-21T18:53:37.872Z,9.50
2022-10-21T18:56:27.709Z,7.83
2022-10-21T18:59:16.212Z,8.40
2022-10-21T19:02:04.816Z,9.53
2022-10-21T19:04:57.083Z,8.83
2022-10-21T19:07:48.303Z,9.03
2022-10-21T19:10:37.784Z,7.47
2022-10-21T19:13:28.849Z,8.33
2022-10-21T19:16:20.048Z,8.37
2022-10-21T19:19:09.326Z,8.80
2022-10-21T19:21:59.245Z,7.90
2022-10-21T19:24:47.777Z,9.13
2022-10-21T19:27:36.485Z,9.60
2022-10-21T19:30:25.153Z,10.63
2022-10-21T19:33:13.877Z,9.30
2022-10-21T19:36:02.746Z,10.27
2022-10-21T19:38:52.750Z,12.67
2022-10-21T19:41:41.674Z,10.37
2022-10-21T19:44:30.403Z,10.03
2022-10-21T19:47:18.912Z,9.03
2022-10-21T19:50:08.891Z,8.10
2022-10-21T19:52:57.607Z,7.83
2022-10-21T19:55:47.672Z,6.70
2022-10-21T19:58:39.384Z,7.07
2022-10-21T20:01:27.991Z,6.40
2022-10-21T20:04:16.622Z,7.80
2022-10-21T20:07:05.072Z,6.50
2022-10-21T20:09:53.525Z,7.07
2022-10-21T20:12:43.723Z,7.93
2022-10-21T20:15:32.320Z,7.03
2022-10-21T20:18:23.513Z,6.23
2022-10-21T20:21:15.108Z,7.77
2022-10-21T20:24:04.445Z,7.00
2022-10-21T20:26:54.055Z,7.87
2022-10-21T20:29:45.484Z,6.53
2022-10-21T20:32:34.173Z,6.97
2022-10-21T20:35:22.640Z,7.63
2022-10-21T20:38:11.121Z,6.73
2022-10-21T20:41:02.349Z,6.53
2022-10-21T20:43:51.667Z,7.93
2022-10-21T20:46:41.456Z,7.40
2022-10-21T20:49:29.999Z,7.60
2022-10-21T20:52:18.649Z,7.30
2022-10-21T20:55:07.709Z,7.20
2022-10-21T20:57:56.175Z,7.60
2022-10-21T21:00:46.545Z,6.80
2022-10-21T21:03:38.513Z,7.10
2022-10-21T21:06:27.660Z,6.90
2022-10-21T21:09:57.314Z,8.43
2022-10-21T21:12:26.902Z,10.20
2022-10-21T21:15:15.681Z,8.50
2022-10-21T21:18:10.100Z,8.70
2022-10-21T21:21:04.957Z,7.80
2022-10-21T21:23:54.192Z,7.33
2022-10-21T21:26:43.084Z,7.20
2022-10-21T21:29:31.628Z,6.90
2022-10-21T21:32:20.051Z,5.60
2022-10-21T21:35:09.806Z,4.37
2022-10-21T21:37:59.606Z,3.27
2022-10-21T21:40:48.272Z,2.53
2022-10-21T21:43:36.996Z,2.00
2022-10-21T21:46:26.016Z,1.57
2022-10-21T21:49:14.437Z,1.60
2022-10-21T21:52:02.904Z,1.40
2022-10-21T21:54:54.455Z,1.30
2022-10-21T21:57:43.213Z,1.13
2022-10-21T22:00:31.875Z,1.20
2022-10-21T22:03:21.601Z,1.40
2022-10-21T22:06:10.235Z,1.87
2022-10-21T22:08:58.815Z,1.93
2022-10-21T22:11:48.643Z,1.80
2022-10-21T22:14:37.078Z,2.00
2022-10-21T22:17:26.036Z,1.77
2022-10-21T22:20:14.505Z,1.73
2022-10-21T22:23:02.907Z,1.30
2022-10-21T22:25:51.315Z,1.40
2022-10-21T22:28:41.604Z,1.30
2022-10-21T22:31:30.601Z,1.80
2022-10-21T22:34:19.456Z,1.97
2022-10-21T22:37:07.899Z,1.27
2022-10-21T22:39:56.314Z,1.30
2022-10-21T22:45:39.517Z,1.33
2022-10-21T22:48:27.961Z,1.60
2022-10-21T22:51:16.451Z,1.50
2022-10-21T22:54:11.649Z,1.80
2022-10-21T22:57:03.723Z,2.20
2022-10-21T22:59:53.490Z,1.63
2022-10-21T23:02:43.639Z,1.80
2022-10-21T23:05:32.508Z,2.03
2022-10-21T23:08:20.943Z,1.73
2022-10-21T23:11:09.339Z,2.07
2022-10-21T23:14:03.426Z,1.80
2022-10-21T23:16:56.460Z,2.20
2022-10-21T23:19:46.257Z,1.50
2022-10-21T23:22:34.771Z,1.70
2022-10-21T23:25:23.863Z,2.17
2022-10-21T23:28:12.342Z,1.67
2022-10-21T23:31:01.234Z,1.90
2022-10-21T23:33:49.727Z,2.10
2022-10-21T23:36:39.490Z,2.10
2022-10-21T23:39:28.058Z,1.60
2022-10-21T23:42:16.498Z,1.90
2022-10-21T23:45:05.886Z,2.00
2022-10-21T23:47:54.279Z,2.30
2022-10-21T23:50:44.678Z,2.27
2022-10-21T23:53:34.665Z,1.70
2022-10-21T23:56:23.148Z,1.90
2022-10-21T23:59:11.578Z,1.80
